Chesterville, Mississippi
Current Conditions -  °F | °C
As of 10:53 PM on Thursday 30 Oct 2014 (Local Time) from KTUP Reporting Station
Overcast Overcast  
Wind Chill: 53°   Ceiling: 10000
Heat Index: 53°   Visibility: 10mi
Dew Point: 48°   Wind: 3mph
Humidity: 83%   Direction: 270°W
Pressure: 30.03"   Gusts: NA
Location:  34.2235°N, 88.7398°W
Report Text: KTUP 310353Z AUTO 27003KT 10SM BKN100 OVC110 12/09 A3003 RMK AO2 SLP167 T01170089
Loading
Personal Weather Stations






























Interactive Weather Map
Tropical Storm Tracking
New forecast layout! Learn more

10-Day Weather Forecast

Advertisements
Track Severe Weather on mobile